createdAt,value
2018-02-22T00:02:25.331Z,11.17
2018-02-22T00:12:33.171Z,12.47
2018-02-22T00:22:44.148Z,9.43
2018-02-22T00:32:53.612Z,12.40
2018-02-22T00:43:03.457Z,15.23
2018-02-22T00:53:14.633Z,16.17
2018-02-22T01:13:38.133Z,14.77
2018-02-22T01:23:57.682Z,15.60
2018-02-22T01:34:08.309Z,10.60
2018-02-22T01:44:21.994Z,9.13
2018-02-22T01:54:37.307Z,8.73
2018-02-22T02:15:01.665Z,7.83
2018-02-22T02:25:12.707Z,6.90
2018-02-22T02:35:22.817Z,6.47
2018-02-22T02:45:32.906Z,6.73
2018-02-22T02:55:43.375Z,6.93
2018-02-22T03:05:52.818Z,7.00
2018-02-22T03:16:03.393Z,8.73
2018-02-22T03:26:12.701Z,8.20
2018-02-22T03:36:26.687Z,7.47
2018-02-22T03:46:40.736Z,7.00
2018-02-22T03:56:53.004Z,8.03
2018-02-22T04:07:05.508Z,8.17
2018-02-22T04:17:17.260Z,8.07
2018-02-22T04:27:28.466Z,7.43
2018-02-22T04:37:39.878Z,7.43
2018-02-22T04:47:53.866Z,8.17
2018-02-22T04:58:08.718Z,8.80
2018-02-22T05:08:25.736Z,8.13
2018-02-22T05:18:39.437Z,7.43
2018-02-22T05:28:49.089Z,7.47
2018-02-22T05:38:59.916Z,7.70
2018-02-22T05:49:10.795Z,7.43
2018-02-22T05:59:23.329Z,9.10
2018-02-22T06:09:36.150Z,7.20
2018-02-22T06:19:59.646Z,7.93
2018-02-22T06:30:10.678Z,8.20
2018-02-22T06:40:23.395Z,8.17
2018-02-22T06:50:31.863Z,7.67
2018-02-22T07:00:46.959Z,8.10
2018-02-22T07:11:03.280Z,7.63
2018-02-22T07:21:17.220Z,7.90
2018-02-22T07:31:25.621Z,7.93
2018-02-22T07:41:37.472Z,8.13
2018-02-22T07:51:47.997Z,7.77
2018-02-22T08:02:03.696Z,7.93
2018-02-22T08:12:17.919Z,7.53
2018-02-22T08:22:28.729Z,8.33
2018-02-22T08:32:39.492Z,7.93
2018-02-22T08:42:55.316Z,7.50
2018-02-22T08:53:06.479Z,8.10
2018-02-22T09:03:20.151Z,7.17
2018-02-22T09:13:31.582Z,7.60
2018-02-22T09:23:40.507Z,8.10
2018-02-22T09:33:54.314Z,8.03
2018-02-22T09:44:04.165Z,7.87
2018-02-22T09:54:15.112Z,7.83
2018-02-22T10:04:25.439Z,7.60
2018-02-22T10:14:36.299Z,8.07
2018-02-22T10:24:46.918Z,7.60
2018-02-22T10:34:56.921Z,7.87
2018-02-22T10:45:14.892Z,7.07
2018-02-22T10:55:27.906Z,7.63
2018-02-22T11:05:37.793Z,7.53
2018-02-22T11:15:50.443Z,7.03
2018-02-22T11:26:00.492Z,7.27
2018-02-22T11:36:11.199Z,7.20
2018-02-22T11:46:20.359Z,7.33
2018-02-22T11:56:31.437Z,7.33
2018-02-22T12:06:41.028Z,6.90
2018-02-22T12:16:51.160Z,6.87
2018-02-22T12:26:59.589Z,7.00
2018-02-22T12:37:08.683Z,7.00
2018-02-22T12:47:20.199Z,6.93
2018-02-22T12:57:32.884Z,7.20
2018-02-22T13:07:43.297Z,6.57
2018-02-22T13:17:53.398Z,6.80
2018-02-22T13:28:04.948Z,6.30
2018-02-22T13:38:31.438Z,6.93
2018-02-22T13:48:58.209Z,7.10
2018-02-22T13:59:13.283Z,5.97
2018-02-22T14:09:24.616Z,5.97
2018-02-22T14:19:33.678Z,5.77
2018-02-22T14:29:47.085Z,5.90
2018-02-22T14:39:57.419Z,6.07
2018-02-22T14:50:07.364Z,5.43
2018-02-22T15:00:16.420Z,5.90
2018-02-22T15:10:32.673Z,5.87
2018-02-22T15:20:42.105Z,5.90
2018-02-22T15:30:55.751Z,5.30
2018-02-22T15:41:05.043Z,5.37
2018-02-22T15:51:17.432Z,5.40
2018-02-22T16:01:26.831Z,5.33
2018-02-22T16:11:36.506Z,5.33
2018-02-22T16:21:46.808Z,5.17
2018-02-22T16:31:56.854Z,5.23
2018-02-22T16:42:09.168Z,5.37
2018-02-22T16:52:17.692Z,4.70
2018-02-22T17:02:25.958Z,4.83
2018-02-22T17:12:36.142Z,5.00
2018-02-22T17:22:45.568Z,5.50
2018-02-22T17:32:55.176Z,4.73
2018-02-22T17:53:14.132Z,4.40
2018-02-22T18:03:25.797Z,4.40
2018-02-22T18:13:35.019Z,4.70
2018-02-22T18:23:43.338Z,4.77
2018-02-22T18:33:52.454Z,4.83
2018-02-22T18:44:09.038Z,4.30
2018-02-22T18:54:23.978Z,4.40
2018-02-22T19:04:33.518Z,4.90
2018-02-22T19:14:42.407Z,4.43
2018-02-22T19:24:51.568Z,5.23
2018-02-22T19:35:00.032Z,4.63
2018-02-22T19:45:12.057Z,5.43
2018-02-22T19:55:23.893Z,5.03
2018-02-22T20:05:32.183Z,5.00
2018-02-22T20:15:40.659Z,5.33
2018-02-22T20:25:48.521Z,4.87
2018-02-22T20:35:57.095Z,6.00
2018-02-22T20:46:07.196Z,5.30
2018-02-22T20:56:18.950Z,5.40
2018-02-22T21:06:28.820Z,5.73
2018-02-22T21:16:37.629Z,5.90
2018-02-22T21:26:47.271Z,6.03
2018-02-22T21:36:56.448Z,5.80
2018-02-22T21:47:06.374Z,6.63
2018-02-22T21:57:14.924Z,6.27
2018-02-22T22:07:22.997Z,6.00
2018-02-22T22:17:31.891Z,5.80
2018-02-22T22:27:43.886Z,6.20
2018-02-22T22:37:52.349Z,6.10
2018-02-22T22:48:01.154Z,6.10
2018-02-22T22:58:19.352Z,6.33
2018-02-22T23:08:29.520Z,6.20
2018-02-22T23:18:38.974Z,6.57
2018-02-22T23:28:50.157Z,6.60
2018-02-22T23:39:02.965Z,6.90
2018-02-22T23:49:12.761Z,6.80
2018-02-22T23:59:26.405Z,6.90
